map of RPN home
RPN - Airport
Location
City:  Rosh Pina, Israel
Name:Rosh Pina
Old (Alt.):Ben Ya'akov
ICAO:LLIB
IATA:RPN

Details
Type:Airport (Aerodrome, Airfield)
Use:Public/Civil
Latitude:3258'52"N (32.981047)
Longitude:3534'19"E (35.571908)
Datum:WGS 1984
Elevation:922 ft (281 m)
Variation:4.90E (WMM2015v2 magnetic declination)
0.08 annual change
Runways:2
Longest:3655 × 100 ft (1114 × 30.5 m), paved

Time
Time Zone:UTC+2 (DST+3)
Local Time:

Weather
METAR:LLIB 041350Z 10010KT CAVOK 21/03 Q1020
TAF:LLIB 041102Z 0412/0512 13014KT CAVOK PROB40 0418/0512 12019KT 5000 HZ TX22/0412Z TN16/0505Z

Related Locations
Nearby:
Farthest:RVV: 11775 mi / 18949 km
Raivavae, Tubuai Islands, Austral Islands, PF

Find:

   beyond  
but within

Other Information
Maps:
NOTAMs:
Links:
Sources:

  
  • flag of Israel
  

Sectional Chart

Flight Planning
at skyvector.com

Satellite Image

Google Maps Satellite view

 

Copyright © 2004-2019 Karl L. Swartz. All rights reserved.
The Great Circle Mapper name and logo are trademarks of the Great Circle Mapper.
All other trademarks mentioned herein belong to their respective owners.
Please see credits for attibutions and further copyright information.

  Follow gcmap on Facebook Follow gcmap on Twitter GCmap on LinkedIn

hCard Microformat

Geo Microformat